createdAt,value
2023-05-01T00:01:28.845Z,78.00
2023-05-01T00:03:56.247Z,80.88
2023-05-01T00:06:23.160Z,82.99
2023-05-01T00:08:49.951Z,80.02
2023-05-01T00:11:16.635Z,81.51
2023-05-01T00:13:43.354Z,81.00
2023-05-01T00:16:10.490Z,79.86
2023-05-01T00:18:38.991Z,80.87
2023-05-01T00:21:05.907Z,79.29
2023-05-01T00:23:32.574Z,78.36
2023-05-01T00:25:59.242Z,78.05
2023-05-01T00:28:25.912Z,77.26
2023-05-01T00:30:52.696Z,77.09
2023-05-01T00:33:19.585Z,78.78
2023-05-01T00:35:47.795Z,77.54
2023-05-01T00:38:14.611Z,79.80
2023-05-01T00:40:44.655Z,78.97
2023-05-01T00:43:12.109Z,80.79
2023-05-01T00:45:38.932Z,80.15
2023-05-01T00:48:06.229Z,78.43
2023-05-01T00:50:33.334Z,77.89
2023-05-01T00:53:02.180Z,77.42
2023-05-01T00:55:29.103Z,77.46
2023-05-01T00:57:56.350Z,77.31
2023-05-01T01:00:24.802Z,77.21
2023-05-01T01:02:52.205Z,76.80
2023-05-01T01:05:21.866Z,76.97
2023-05-01T01:07:52.009Z,77.23
2023-05-01T01:10:23.574Z,79.62
2023-05-01T01:12:55.023Z,79.22
2023-05-01T01:15:28.343Z,77.61
2023-05-01T01:17:59.001Z,78.41
2023-05-01T01:20:31.298Z,79.32
2023-05-01T01:23:02.198Z,77.81
2023-05-01T01:25:47.017Z,77.00
2023-05-01T01:28:34.582Z,78.26
2023-05-01T01:31:09.578Z,82.64
2023-05-01T01:33:57.371Z,81.79
2023-05-01T01:36:31.446Z,78.82
2023-05-01T01:39:01.160Z,78.13
2023-05-01T01:41:30.787Z,78.85
2023-05-01T01:44:01.462Z,79.11
2023-05-01T01:46:28.844Z,77.60
2023-05-01T01:48:56.400Z,76.80
2023-05-01T01:51:25.252Z,78.66
2023-05-01T01:53:54.210Z,77.56
2023-05-01T01:56:22.943Z,77.10
2023-05-01T01:58:51.777Z,76.59
2023-05-01T02:01:19.741Z,76.71
2023-05-01T02:03:47.425Z,76.73
2023-05-01T02:06:15.459Z,76.77
2023-05-01T02:08:42.754Z,76.52
2023-05-01T02:11:11.355Z,79.07
2023-05-01T02:13:39.271Z,77.74
2023-05-01T02:16:06.836Z,77.27
2023-05-01T02:18:34.495Z,77.64
2023-05-01T02:21:01.711Z,77.42
2023-05-01T02:23:28.633Z,77.13
2023-05-01T02:25:56.869Z,76.90
2023-05-01T02:28:27.049Z,77.70
2023-05-01T02:30:53.845Z,77.25
2023-05-01T02:33:20.551Z,77.44
2023-05-01T02:35:47.631Z,77.17
2023-05-01T02:38:17.056Z,77.26
2023-05-01T02:40:45.606Z,77.91
2023-05-01T02:43:13.828Z,78.01
2023-05-01T02:45:43.040Z,77.76
2023-05-01T02:48:11.124Z,77.93
2023-05-01T02:50:40.674Z,79.40
2023-05-01T02:53:08.265Z,80.79
2023-05-01T02:55:46.628Z,80.18
2023-05-01T02:58:17.105Z,78.42
2023-05-01T03:00:46.060Z,77.87
2023-05-01T03:03:12.896Z,79.16
2023-05-01T03:05:39.686Z,80.84
2023-05-01T03:08:06.846Z,82.24
2023-05-01T03:10:33.831Z,81.92
2023-05-01T03:13:01.151Z,81.59
2023-05-01T03:15:27.791Z,82.57
2023-05-01T03:17:56.004Z,83.33
2023-05-01T03:20:22.752Z,81.82
2023-05-01T03:22:49.964Z,79.71
2023-05-01T03:25:16.750Z,79.66
2023-05-01T03:27:43.469Z,79.23
2023-05-01T03:30:10.730Z,78.09
2023-05-01T03:32:40.779Z,81.08
2023-05-01T03:35:15.645Z,83.47
2023-05-01T03:37:42.459Z,83.63
2023-05-01T03:40:10.417Z,82.96
2023-05-01T03:42:55.780Z,82.10
2023-05-01T03:45:23.791Z,81.36
2023-05-01T03:47:50.640Z,79.27
2023-05-01T03:50:19.072Z,78.46
2023-05-01T03:52:50.589Z,79.51
2023-05-01T03:55:17.783Z,80.12
2023-05-01T03:57:47.462Z,78.18
2023-05-01T04:00:14.349Z,77.37
2023-05-01T04:02:45.485Z,77.75
2023-05-01T04:05:18.285Z,78.70
2023-05-01T04:07:54.411Z,81.08
2023-05-01T04:10:21.110Z,80.15
2023-05-01T04:12:56.256Z,79.10
2023-05-01T04:15:22.977Z,78.43
2023-05-01T04:17:52.838Z,78.13
2023-05-01T04:20:20.367Z,78.24
2023-05-01T04:22:48.126Z,78.72
2023-05-01T04:25:16.431Z,79.91
2023-05-01T04:27:44.770Z,80.21
2023-05-01T04:30:12.772Z,80.17
2023-05-01T04:32:39.650Z,79.96
2023-05-01T04:35:06.966Z,79.54
2023-05-01T04:37:35.579Z,79.77
2023-05-01T04:40:03.425Z,79.60
2023-05-01T04:42:32.359Z,81.32
2023-05-01T04:45:02.747Z,82.02
2023-05-01T04:47:32.530Z,82.47
2023-05-01T04:49:59.204Z,82.19
2023-05-01T04:52:26.411Z,80.35
2023-05-01T04:54:58.029Z,80.47
2023-05-01T04:57:27.183Z,79.77
2023-05-01T04:59:55.612Z,79.70
2023-05-01T05:02:23.552Z,78.61
2023-05-01T05:04:51.046Z,78.58
2023-05-01T05:07:17.832Z,78.76
2023-05-01T05:10:14.045Z,78.22
2023-05-01T05:12:45.417Z,76.77
2023-05-01T05:15:13.552Z,75.86
2023-05-01T05:17:40.285Z,74.92
2023-05-01T05:20:08.654Z,74.16
2023-05-01T05:22:36.225Z,73.50
2023-05-01T05:25:28.868Z,72.43
2023-05-01T05:27:55.679Z,72.34
2023-05-01T05:30:23.692Z,70.20
2023-05-01T05:32:50.565Z,71.10
2023-05-01T05:35:17.589Z,67.24
2023-05-01T05:37:46.088Z,60.41
2023-05-01T05:40:13.315Z,56.06
2023-05-01T05:42:51.047Z,55.33
2023-05-01T05:45:17.900Z,56.23
2023-05-01T05:47:46.056Z,58.53
2023-05-01T05:50:12.994Z,59.23
2023-05-01T05:52:40.453Z,61.54
2023-05-01T05:55:08.409Z,62.87
2023-05-01T05:57:37.703Z,62.22
2023-05-01T06:00:06.950Z,65.32
2023-05-01T06:02:39.039Z,65.76
2023-05-01T06:05:10.327Z,64.01
2023-05-01T06:07:37.754Z,65.44
2023-05-01T06:10:05.462Z,62.79
2023-05-01T06:12:33.450Z,62.15
2023-05-01T06:15:03.096Z,59.32
2023-05-01T06:17:30.815Z,58.59
2023-05-01T06:19:57.941Z,55.80
2023-05-01T06:22:26.254Z,54.50
2023-05-01T06:25:04.253Z,54.25
2023-05-01T06:27:31.358Z,54.61
2023-05-01T06:29:58.187Z,55.07
2023-05-01T06:32:25.017Z,57.97
2023-05-01T06:34:52.360Z,56.57
2023-05-01T06:37:19.374Z,56.85
2023-05-01T06:39:47.935Z,56.63
2023-05-01T06:42:16.222Z,57.85
2023-05-01T06:44:42.882Z,56.77
2023-05-01T06:47:10.164Z,57.23
2023-05-01T06:49:37.005Z,54.95
2023-05-01T06:52:03.830Z,56.60
2023-05-01T06:54:31.136Z,58.71
2023-05-01T06:56:59.231Z,58.74
2023-05-01T06:59:25.845Z,58.42
2023-05-01T07:01:52.751Z,57.15
2023-05-01T07:04:19.430Z,56.55
2023-05-01T07:06:46.104Z,56.19
2023-05-01T07:09:13.965Z,53.39
2023-05-01T07:11:40.700Z,53.78
2023-05-01T07:14:08.744Z,55.73
2023-05-01T07:16:35.585Z,57.39
2023-05-01T07:19:02.184Z,55.97
2023-05-01T07:21:28.831Z,56.15
2023-05-01T07:23:55.495Z,55.60
2023-05-01T07:26:22.134Z,56.70
2023-05-01T07:28:48.809Z,55.74
2023-05-01T07:31:17.062Z,56.84
2023-05-01T07:33:44.785Z,57.20
2023-05-01T07:36:11.886Z,58.12
2023-05-01T07:38:38.549Z,57.52
2023-05-01T07:41:05.512Z,59.19
2023-05-01T07:43:32.152Z,61.05
2023-05-01T07:46:00.389Z,59.22
2023-05-01T07:48:28.659Z,58.84
2023-05-01T07:50:57.021Z,57.58
2023-05-01T07:53:24.190Z,57.57
2023-05-01T07:55:51.000Z,56.49
2023-05-01T07:58:17.763Z,56.15
2023-05-01T08:00:47.362Z,56.23
2023-05-01T08:03:14.309Z,55.35
2023-05-01T08:05:42.720Z,55.46
2023-05-01T08:08:09.856Z,53.11
2023-05-01T08:10:36.743Z,52.27
2023-05-01T08:13:03.675Z,52.24
2023-05-01T08:15:30.721Z,50.85
2023-05-01T08:17:57.446Z,50.94
2023-05-01T08:20:24.234Z,53.46
2023-05-01T08:22:52.280Z,50.82
2023-05-01T08:25:19.239Z,51.21
2023-05-01T08:27:46.069Z,49.55
2023-05-01T08:30:12.892Z,50.77
2023-05-01T08:32:39.600Z,50.56
2023-05-01T08:35:06.614Z,48.96
2023-05-01T08:37:33.236Z,48.64
2023-05-01T08:40:03.698Z,52.04
2023-05-01T08:42:32.262Z,49.30
2023-05-01T08:44:59.504Z,49.98
2023-05-01T08:47:26.835Z,49.90
2023-05-01T08:49:54.519Z,48.64
2023-05-01T08:52:21.921Z,49.88
2023-05-01T08:54:50.043Z,48.85
2023-05-01T08:57:18.273Z,47.00
2023-05-01T08:59:46.169Z,47.84
2023-05-01T09:02:15.447Z,47.49
2023-05-01T09:04:42.193Z,47.88
2023-05-01T09:07:09.760Z,47.54
2023-05-01T09:09:37.035Z,46.22
2023-05-01T09:12:08.878Z,44.40
2023-05-01T09:14:37.162Z,46.91
2023-05-01T09:17:03.896Z,46.75
2023-05-01T09:19:30.558Z,45.64
2023-05-01T09:21:57.209Z,43.08
2023-05-01T09:24:25.561Z,42.43
2023-05-01T09:26:52.462Z,43.79
2023-05-01T09:29:39.801Z,42.22
2023-05-01T09:32:17.139Z,40.24
2023-05-01T09:34:44.810Z,42.31
2023-05-01T09:37:13.765Z,37.85
2023-05-01T09:39:40.773Z,39.82
2023-05-01T09:42:07.736Z,36.21
2023-05-01T09:44:43.256Z,36.43
2023-05-01T09:47:10.211Z,33.76
2023-05-01T09:49:44.744Z,34.93
2023-05-01T09:52:11.438Z,37.83
2023-05-01T09:54:38.029Z,35.43
2023-05-01T09:57:05.097Z,37.00
2023-05-01T09:59:34.362Z,37.96
2023-05-01T10:02:02.527Z,37.22
2023-05-01T10:04:32.795Z,38.85
2023-05-01T10:07:00.757Z,40.51
2023-05-01T10:09:28.104Z,38.23
2023-05-01T10:11:56.241Z,39.03
2023-05-01T10:14:25.155Z,40.72
2023-05-01T10:16:54.739Z,39.53
2023-05-01T10:19:23.156Z,40.67
2023-05-01T10:21:49.987Z,39.48
2023-05-01T10:24:17.291Z,38.06
2023-05-01T10:26:44.866Z,36.88
2023-05-01T10:29:12.380Z,36.07
2023-05-01T10:31:41.475Z,36.54
2023-05-01T10:34:09.297Z,36.78
2023-05-01T10:36:39.857Z,35.88
2023-05-01T10:39:07.182Z,39.05
2023-05-01T10:41:52.693Z,41.42
2023-05-01T10:44:23.327Z,36.50
2023-05-01T10:46:50.230Z,34.46
2023-05-01T10:49:17.230Z,36.65
2023-05-01T10:52:08.036Z,36.01
2023-05-01T10:54:36.454Z,40.96
2023-05-01T10:57:03.336Z,39.42
2023-05-01T11:00:04.247Z,36.89
2023-05-01T11:02:31.039Z,39.52
2023-05-01T11:04:57.903Z,41.67
2023-05-01T11:07:25.479Z,41.04
2023-05-01T11:10:01.848Z,43.13
2023-05-01T11:12:47.412Z,41.42
2023-05-01T11:15:25.200Z,41.82
2023-05-01T11:17:52.611Z,39.61
2023-05-01T11:20:38.128Z,39.57
2023-05-01T11:23:04.854Z,39.57
2023-05-01T11:25:33.996Z,40.75
2023-05-01T11:28:01.929Z,41.04
2023-05-01T11:30:37.466Z,38.71
2023-05-01T11:33:05.680Z,38.04
2023-05-01T11:35:32.965Z,39.63
2023-05-01T11:37:59.596Z,39.72
2023-05-01T11:40:26.906Z,35.19
2023-05-01T11:43:02.301Z,36.07
2023-05-01T11:45:29.282Z,39.05
2023-05-01T11:47:56.385Z,40.76
2023-05-01T11:50:31.796Z,36.62
2023-05-01T11:52:58.559Z,37.20
2023-05-01T11:55:31.249Z,33.54
2023-05-01T11:57:58.014Z,32.78
2023-05-01T12:00:30.005Z,33.66
2023-05-01T12:02:58.052Z,37.80
2023-05-01T12:05:25.004Z,35.54
2023-05-01T12:07:51.736Z,38.75
2023-05-01T12:10:18.595Z,38.12
2023-05-01T12:12:45.456Z,37.08
2023-05-01T12:15:12.119Z,37.63
2023-05-01T12:17:40.399Z,39.12
2023-05-01T12:20:08.740Z,40.68
2023-05-01T12:22:35.814Z,39.75
2023-05-01T12:25:03.510Z,38.75
2023-05-01T12:27:30.384Z,38.83
2023-05-01T12:29:57.137Z,39.95
2023-05-01T12:32:29.727Z,40.44
2023-05-01T12:34:58.047Z,40.10
2023-05-01T12:37:29.931Z,36.59
2023-05-01T12:39:57.418Z,33.46
2023-05-01T12:42:24.151Z,34.99
2023-05-01T12:44:59.233Z,34.21
2023-05-01T12:47:26.794Z,32.56
2023-05-01T12:50:02.442Z,33.47
2023-05-01T12:52:29.126Z,37.32
2023-05-01T12:55:01.913Z,35.10
2023-05-01T12:57:28.715Z,37.16
2023-05-01T12:59:59.167Z,37.37
2023-05-01T13:02:29.977Z,39.31
2023-05-01T13:05:06.811Z,40.91
2023-05-01T13:07:33.713Z,40.91
2023-05-01T13:10:00.897Z,39.63
2023-05-01T13:12:28.322Z,40.63
2023-05-01T13:14:55.270Z,41.98
2023-05-01T13:17:22.944Z,42.97
2023-05-01T13:19:54.461Z,41.98
2023-05-01T13:22:29.384Z,43.31
2023-05-01T13:24:56.106Z,41.02
2023-05-01T13:27:23.752Z,41.32
2023-05-01T13:29:52.990Z,42.55
2023-05-01T13:32:19.640Z,43.85
2023-05-01T13:34:46.514Z,46.50
2023-05-01T13:37:13.941Z,48.09
2023-05-01T13:39:42.955Z,46.90
2023-05-01T13:42:11.421Z,48.12
2023-05-01T13:44:43.495Z,47.50
2023-05-01T13:47:11.552Z,46.33
2023-05-01T13:49:40.535Z,45.64
2023-05-01T13:52:07.698Z,48.03
2023-05-01T13:54:39.378Z,47.39
2023-05-01T13:57:07.413Z,47.14
2023-05-01T13:59:39.197Z,49.56
2023-05-01T14:02:13.473Z,46.17
2023-05-01T14:04:40.911Z,45.37
2023-05-01T14:07:07.582Z,41.78
2023-05-01T14:09:35.717Z,41.37
2023-05-01T14:12:02.420Z,43.10
2023-05-01T14:14:30.571Z,39.50
2023-05-01T14:16:57.353Z,41.00
2023-05-01T14:19:24.518Z,41.72
2023-05-01T14:21:51.170Z,40.81
2023-05-01T14:24:18.323Z,40.63
2023-05-01T14:26:45.644Z,39.96
2023-05-01T14:29:21.064Z,41.80
2023-05-01T14:31:49.418Z,41.60
2023-05-01T14:34:17.602Z,42.28
2023-05-01T14:36:44.461Z,39.95
2023-05-01T14:39:11.917Z,40.94
2023-05-01T14:41:40.692Z,41.61
2023-05-01T14:44:11.177Z,41.45
2023-05-01T14:46:43.071Z,43.06
2023-05-01T14:49:11.675Z,41.93
2023-05-01T14:51:41.030Z,40.62
2023-05-01T14:54:09.444Z,40.61
2023-05-01T14:56:36.045Z,42.10
2023-05-01T14:59:02.935Z,41.79
2023-05-01T15:01:29.747Z,42.21
2023-05-01T15:03:56.672Z,41.35
2023-05-01T15:06:25.098Z,44.43
2023-05-01T15:08:51.871Z,43.43
2023-05-01T15:11:18.846Z,41.93
2023-05-01T15:13:46.136Z,42.53
2023-05-01T15:16:12.810Z,42.35
2023-05-01T15:18:39.473Z,42.97
2023-05-01T15:21:06.324Z,42.40
2023-05-01T15:23:34.596Z,42.74
2023-05-01T15:26:01.702Z,41.36
2023-05-01T15:28:28.909Z,42.60
2023-05-01T15:30:56.241Z,41.58
2023-05-01T15:33:22.921Z,41.65
2023-05-01T15:35:51.152Z,41.15
2023-05-01T15:38:17.938Z,40.47
2023-05-01T15:40:46.207Z,42.29
2023-05-01T15:43:12.983Z,42.91
2023-05-01T15:45:43.244Z,40.01
2023-05-01T15:48:11.204Z,39.49
2023-05-01T15:50:37.970Z,40.92
2023-05-01T15:53:04.794Z,41.95
2023-05-01T15:55:31.559Z,44.41
2023-05-01T15:57:59.655Z,44.36
2023-05-01T16:00:26.490Z,43.12
2023-05-01T16:02:53.385Z,44.19
2023-05-01T16:05:24.880Z,45.42
2023-05-01T16:07:53.658Z,45.14
2023-05-01T16:10:20.604Z,45.21
2023-05-01T16:12:47.257Z,45.98
2023-05-01T16:15:15.381Z,47.18
2023-05-01T16:17:43.684Z,47.99
2023-05-01T16:20:11.319Z,49.28
2023-05-01T16:22:38.391Z,50.40
2023-05-01T16:25:05.991Z,52.45
2023-05-01T16:27:32.689Z,52.45
2023-05-01T16:29:59.609Z,53.68
2023-05-01T16:32:28.002Z,54.66
2023-05-01T16:34:54.736Z,55.40
2023-05-01T16:37:22.594Z,56.03
2023-05-01T16:39:49.600Z,57.10
2023-05-01T16:42:16.213Z,60.33
2023-05-01T16:44:42.843Z,59.85
2023-05-01T16:47:11.497Z,61.83
2023-05-01T16:49:40.812Z,61.64
2023-05-01T16:52:07.514Z,64.50
2023-05-01T16:54:36.202Z,69.35
2023-05-01T16:57:05.867Z,72.36
2023-05-01T16:59:32.731Z,74.97
2023-05-01T17:01:59.432Z,75.71
2023-05-01T17:04:26.330Z,77.08
2023-05-01T17:06:56.126Z,78.11
2023-05-01T17:09:23.033Z,79.71
2023-05-01T17:11:57.504Z,81.08
2023-05-01T17:14:24.277Z,78.91
2023-05-01T17:16:51.037Z,74.00
2023-05-01T17:19:17.822Z,76.60
2023-05-01T17:21:44.533Z,76.47
2023-05-01T17:24:14.080Z,76.71
2023-05-01T17:26:40.839Z,75.49
2023-05-01T17:29:07.478Z,71.76
2023-05-01T17:31:34.516Z,74.25
2023-05-01T17:34:01.236Z,73.84
2023-05-01T17:36:29.167Z,72.27
2023-05-01T17:38:56.306Z,76.29
2023-05-01T17:41:24.836Z,72.20
2023-05-01T17:43:51.663Z,72.86
2023-05-01T17:46:18.592Z,72.21
2023-05-01T17:48:45.313Z,71.58
2023-05-01T17:51:14.820Z,71.49
2023-05-01T17:53:41.579Z,69.97
2023-05-01T17:56:09.050Z,69.63
2023-05-01T17:58:37.161Z,69.05
2023-05-01T18:01:04.733Z,68.75
2023-05-01T18:03:32.873Z,68.54
2023-05-01T18:06:01.027Z,68.59
2023-05-01T18:08:27.685Z,69.18
2023-05-01T18:10:54.379Z,69.83
2023-05-01T18:13:27.851Z,70.83
2023-05-01T18:15:56.209Z,70.54
2023-05-01T18:18:22.987Z,70.02
2023-05-01T18:20:49.698Z,69.77
2023-05-01T18:23:18.376Z,70.03
2023-05-01T18:25:45.217Z,70.11
2023-05-01T18:28:12.289Z,70.49
2023-05-01T18:30:39.005Z,72.72
2023-05-01T18:33:07.031Z,74.55
2023-05-01T18:35:33.822Z,78.47
2023-05-01T18:38:00.468Z,84.41
2023-05-01T18:40:27.346Z,84.53
2023-05-01T18:42:54.223Z,85.22
2023-05-01T18:45:21.108Z,85.98
2023-05-01T18:47:48.073Z,86.57
2023-05-01T18:50:21.541Z,85.37
2023-05-01T18:52:48.738Z,80.72
2023-05-01T18:55:15.574Z,80.38
2023-05-01T18:57:43.718Z,80.04
2023-05-01T19:00:11.057Z,80.53
2023-05-01T19:02:37.955Z,79.93
2023-05-01T19:05:05.099Z,81.27
2023-05-01T19:07:33.171Z,82.08
2023-05-01T19:10:00.114Z,85.32
2023-05-01T19:12:27.121Z,86.78
2023-05-01T19:14:53.869Z,87.47
2023-05-01T19:17:20.666Z,87.86
2023-05-01T19:19:47.306Z,86.72
2023-05-01T19:22:14.056Z,85.12
2023-05-01T19:24:42.136Z,85.61
2023-05-01T19:27:08.807Z,87.95
2023-05-01T19:29:35.446Z,88.16
2023-05-01T19:32:02.158Z,87.82
2023-05-01T19:34:29.062Z,88.32
2023-05-01T19:37:00.233Z,90.24
2023-05-01T19:39:27.138Z,91.22
2023-05-01T19:41:55.332Z,92.33
2023-05-01T19:44:22.197Z,92.53
2023-05-01T19:46:49.117Z,91.61
2023-05-01T19:49:15.862Z,90.99
2023-05-01T19:51:42.508Z,90.66
2023-05-01T19:54:09.148Z,90.39
2023-05-01T19:56:35.841Z,88.26
2023-05-01T19:59:03.904Z,87.70
2023-05-01T20:01:31.443Z,85.72
2023-05-01T20:03:58.159Z,84.58
2023-05-01T20:06:24.972Z,84.77
2023-05-01T20:08:51.896Z,84.89
2023-05-01T20:11:18.837Z,84.21
2023-05-01T20:13:45.961Z,83.75
2023-05-01T20:16:14.102Z,83.75
2023-05-01T20:18:40.857Z,82.53
2023-05-01T20:21:07.911Z,81.94
2023-05-01T20:23:34.942Z,82.46
2023-05-01T20:26:01.765Z,82.05
2023-05-01T20:28:28.584Z,82.46
2023-05-01T20:30:55.588Z,82.95
2023-05-01T20:33:23.790Z,82.78
2023-05-01T20:35:51.405Z,86.80
2023-05-01T20:38:18.209Z,88.20
2023-05-01T20:40:44.967Z,89.06
2023-05-01T20:43:11.915Z,89.19
2023-05-01T20:45:39.460Z,88.12
2023-05-01T20:48:06.551Z,88.81
2023-05-01T20:50:36.009Z,89.45
2023-05-01T20:53:02.710Z,89.45
2023-05-01T20:55:29.938Z,89.44
2023-05-01T20:57:56.628Z,89.31
2023-05-01T21:00:23.348Z,88.49
2023-05-01T21:02:51.950Z,86.05
2023-05-01T21:05:18.781Z,85.64
2023-05-01T21:07:46.912Z,85.30
2023-05-01T21:10:16.597Z,85.62
2023-05-01T21:12:43.538Z,86.39
2023-05-01T21:15:11.599Z,86.31
2023-05-01T21:17:39.563Z,87.02
2023-05-01T21:20:11.146Z,85.85
2023-05-01T21:22:39.510Z,85.91
2023-05-01T21:25:08.801Z,86.72
2023-05-01T21:27:39.195Z,86.58
2023-05-01T21:30:06.484Z,85.71
2023-05-01T21:32:34.300Z,85.49
2023-05-01T21:35:01.249Z,84.72
2023-05-01T21:37:27.984Z,84.28
2023-05-01T21:39:54.622Z,84.39
2023-05-01T21:42:22.713Z,84.57
2023-05-01T21:44:49.448Z,84.96
2023-05-01T21:47:16.150Z,85.75
2023-05-01T21:49:42.884Z,85.61
2023-05-01T21:52:09.580Z,87.94
2023-05-01T21:54:36.826Z,87.64
2023-05-01T21:57:07.545Z,88.84
2023-05-01T21:59:37.647Z,89.99
2023-05-01T22:02:04.678Z,87.26
2023-05-01T22:04:31.554Z,87.25
2023-05-01T22:06:58.210Z,87.27
2023-05-01T22:09:24.878Z,89.54
2023-05-01T22:11:51.556Z,91.31
2023-05-01T22:14:18.920Z,90.60
2023-05-01T22:16:47.144Z,88.69
2023-05-01T22:19:14.034Z,88.72
2023-05-01T22:21:40.767Z,88.03
2023-05-01T22:24:07.418Z,87.15
2023-05-01T22:26:34.641Z,87.08
2023-05-01T22:29:01.341Z,86.21
2023-05-01T22:31:28.118Z,85.27
2023-05-01T22:33:56.616Z,85.29
2023-05-01T22:36:23.442Z,84.93
2023-05-01T22:38:50.036Z,85.67
2023-05-01T22:41:16.705Z,85.91
2023-05-01T22:43:43.320Z,88.65
2023-05-01T22:46:10.004Z,88.12
2023-05-01T22:48:36.749Z,87.44
2023-05-01T22:51:04.902Z,86.48
2023-05-01T22:53:31.639Z,87.92
2023-05-01T22:55:58.301Z,88.29
2023-05-01T22:58:24.980Z,89.30
2023-05-01T23:00:51.698Z,87.65
2023-05-01T23:03:18.478Z,86.51
2023-05-01T23:05:45.365Z,85.81
2023-05-01T23:08:13.404Z,87.70
2023-05-01T23:10:40.730Z,89.42
2023-05-01T23:13:08.412Z,89.26
2023-05-01T23:15:36.278Z,89.44
2023-05-01T23:18:03.299Z,87.04
2023-05-01T23:20:30.081Z,85.87
2023-05-01T23:22:57.018Z,84.09
2023-05-01T23:25:26.134Z,84.83
2023-05-01T23:27:54.205Z,84.37
2023-05-01T23:30:21.759Z,84.99
2023-05-01T23:32:48.958Z,85.50
2023-05-01T23:35:18.914Z,85.52
2023-05-01T23:37:45.626Z,84.66
2023-05-01T23:40:12.495Z,85.27
2023-05-01T23:42:40.717Z,87.58
2023-05-01T23:45:08.209Z,88.48
2023-05-01T23:47:34.996Z,90.53
2023-05-01T23:50:02.522Z,91.30
2023-05-01T23:52:29.443Z,90.80
2023-05-01T23:54:56.161Z,88.78
2023-05-01T23:57:22.806Z,86.55
2023-05-01T23:59:51.209Z,86.10
